Time;durP1;ratioP1;P1;durP2;ratioP2;P2;SDS_P1;SDS_P2;PMS_P1;PMS_P2;Temp;Humidity;BMP_temperature;BMP_pressure;BME280_temperature;BME280_humidity;BME280_pressure;Samples;Min_cycle;Max_cycle;Signal;HPM_P1;HPM_P2
2023/03/13 00:01:25;;;;;;;12.75;3.42;;;11.30;99.90;;;;;;5030364;28;20182;-42
2023/03/13 00:03:50;;;;;;;14.63;3.05;;;11.40;99.90;;;;;;5030614;28;20575;-42
2023/03/13 00:06:16;;;;;;;10.70;2.92;;;11.40;99.90;;;;;;5030713;28;20207;-43
2023/03/13 00:08:43;;;;;;;13.27;2.33;;;11.40;99.90;;;;;;5030428;28;20694;-42
2023/03/13 00:11:11;;;;;;;13.10;3.42;;;11.40;99.90;;;;;;5030442;28;20184;-42
2023/03/13 00:13:37;;;;;;;14.50;3.20;;;11.40;99.90;;;;;;5030561;28;20183;-42
2023/03/13 00:16:07;;;;;;;10.10;3.40;;;11.40;99.90;;;;;;5032304;28;20286;-43
2023/03/13 00:18:32;;;;;;;15.10;3.97;;;11.40;99.90;;;;;;5034760;28;20210;-43
2023/03/13 00:21:00;;;;;;;14.32;4.30;;;11.40;99.90;;;;;;5033993;28;20207;-42
2023/03/13 00:23:26;;;;;;;15.35;4.47;;;11.40;99.90;;;;;;5033989;28;20167;-43
2023/03/13 00:25:59;;;;;;;16.48;4.78;;;11.40;99.90;;;;;;5033750;28;20214;-42
2023/03/13 00:28:28;;;;;;;19.25;3.67;;;11.40;99.90;;;;;;5033865;28;20313;-43
2023/03/13 00:31:01;;;;;;;16.92;3.50;;;11.40;99.90;;;;;;5033427;28;20663;-42
2023/03/13 00:33:26;;;;;;;15.75;4.45;;;11.40;99.90;;;;;;5033631;28;20186;-43
2023/03/13 00:35:52;;;;;;;18.45;4.40;;;11.40;99.90;;;;;;5033848;28;20674;-47
2023/03/13 00:38:17;;;;;;;15.50;3.80;;;11.30;99.90;;;;;;5033958;28;20168;-43
2023/03/13 00:40:43;;;;;;;18.65;3.58;;;11.40;99.90;;;;;;5033767;28;20246;-43
2023/03/13 00:43:08;;;;;;;15.38;3.35;;;11.30;99.90;;;;;;5033753;28;20175;-43
2023/03/13 00:45:34;;;;;;;19.50;4.45;;;11.30;99.90;;;;;;5033979;28;20171;-43
2023/03/13 00:47:59;;;;;;;11.68;3.45;;;11.30;99.90;;;;;;5033739;28;20175;-45
2023/03/13 00:50:25;;;;;;;15.38;3.88;;;11.40;99.90;;;;;;5033482;28;20176;-48
2023/03/13 00:52:50;;;;;;;19.05;4.30;;;11.40;99.90;;;;;;5033077;28;20189;-51
2023/03/13 00:55:16;;;;;;;10.45;2.55;;;11.40;99.90;;;;;;5033328;28;20159;-43
2023/03/13 00:57:41;;;;;;;6.07;2.25;;;11.40;99.90;;;;;;5033378;28;20267;-43
2023/03/13 01:00:07;;;;;;;11.48;3.15;;;11.50;99.90;;;;;;5033360;28;20175;-42
2023/03/13 01:02:33;;;;;;;19.25;3.75;;;11.50;99.90;;;;;;5033344;28;20183;-43
2023/03/13 01:04:58;;;;;;;16.33;5.07;;;11.40;99.90;;;;;;5033107;28;20221;-43
2023/03/13 01:07:26;;;;;;;14.77;4.95;;;11.40;99.90;;;;;;5032967;28;20294;-48
2023/03/13 01:09:51;;;;;;;13.18;4.22;;;11.40;99.90;;;;;;5033357;28;20172;-51
2023/03/13 01:12:17;;;;;;;16.33;4.05;;;11.40;99.90;;;;;;5032875;28;20650;-43
2023/03/13 01:14:42;;;;;;;15.02;3.45;;;11.40;99.90;;;;;;5033020;28;20163;-50
2023/03/13 01:17:08;;;;;;;13.95;3.67;;;11.40;99.90;;;;;;5032920;28;20294;-49
2023/03/13 01:19:33;;;;;;;12.75;2.97;;;11.40;99.90;;;;;;5033162;28;20218;-51
2023/03/13 01:21:59;;;;;;;14.25;3.78;;;11.40;99.90;;;;;;5032824;28;20221;-51
2023/03/13 01:24:25;;;;;;;12.70;2.60;;;11.40;99.90;;;;;;5032850;28;20670;-50
2023/03/13 01:26:50;;;;;;;12.32;3.33;;;11.40;99.90;;;;;;5032681;28;20575;-48
2023/03/13 01:29:16;;;;;;;12.30;2.90;;;11.40;99.90;;;;;;5032698;28;20179;-43
2023/03/13 01:31:41;;;;;;;14.02;3.50;;;11.50;99.90;;;;;;5032424;28;20260;-46
2023/03/13 01:34:09;;;;;;;8.40;2.80;;;11.50;99.90;;;;;;5032787;28;20171;-46
2023/03/13 01:36:36;;;;;;;12.80;3.30;;;11.40;99.90;;;;;;5033094;28;20597;-52
2023/03/13 01:39:02;;;;;;;12.35;3.58;;;11.50;99.90;;;;;;5033027;28;20274;-52
2023/03/13 01:41:29;;;;;;;12.50;2.88;;;11.50;99.90;;;;;;5032509;28;20597;-51
2023/03/13 01:43:55;;;;;;;12.15;3.65;;;11.50;99.90;;;;;;5032490;28;20206;-52
2023/03/13 01:46:26;;;;;;;12.68;2.65;;;11.60;99.90;;;;;;5031229;28;20175;-49
2023/03/13 01:49:01;;;;;;;8.77;2.75;;;11.50;99.90;;;;;;5032503;28;20171;-45
2023/03/13 01:51:34;;;;;;;5.15;2.22;;;11.50;99.90;;;;;;5032112;28;20597;-43
2023/03/13 01:54:03;;;;;;;11.95;2.90;;;11.50;99.90;;;;;;5032252;28;20167;-43
2023/03/13 01:56:41;;;;;;;8.05;2.42;;;11.50;99.90;;;;;;5032190;28;20209;-43
2023/03/13 01:59:12;;;;;;;15.95;4.38;;;11.40;99.90;;;;;;5031869;28;20172;-43
2023/03/13 02:01:39;;;;;;;10.05;3.10;;;11.40;99.90;;;;;;5032069;28;20263;-42
2023/03/13 02:04:05;;;;;;;13.30;3.75;;;11.40;99.90;;;;;;5032697;28;20160;-42
2023/03/13 02:06:35;;;;;;;3.88;1.20;;;11.40;99.90;;;;;;5032409;28;20215;-43
2023/03/13 02:09:11;;;;;;;9.77;2.63;;;11.40;99.90;;;;;;5032060;28;20168;-43
2023/03/13 02:11:56;;;;;;;13.35;2.88;;;11.40;99.90;;;;;;5031727;28;20701;-43
2023/03/13 02:14:24;;;;;;;8.35;2.20;;;11.40;99.90;;;;;;5031449;28;20604;-43
2023/03/13 02:16:51;;;;;;;10.45;3.35;;;11.40;99.90;;;;;;5031717;28;20225;-42
2023/03/13 02:19:23;;;;;;;5.88;2.20;;;11.40;99.90;;;;;;5031846;28;20246;-43
2023/03/13 02:22:21;;;;;;;10.63;2.78;;;11.40;99.90;;;;;;5031945;28;20254;-42
2023/03/13 02:25:03;;;;;;;8.07;3.05;;;11.40;99.90;;;;;;5031828;28;20247;-43
2023/03/13 02:27:29;;;;;;;8.20;2.58;;;11.30;99.90;;;;;;5031670;28;20167;-43
2023/03/13 02:29:55;;;;;;;13.57;3.97;;;11.20;99.90;;;;;;5031359;28;20179;-42
2023/03/13 02:32:22;;;;;;;9.85;3.10;;;11.20;99.90;;;;;;5031333;28;20198;-43
2023/03/13 02:34:51;;;;;;;7.53;3.25;;;11.10;99.90;;;;;;5031662;28;20707;-43
2023/03/13 02:37:18;;;;;;;7.30;2.97;;;11.20;99.90;;;;;;5031310;28;20675;-43
2023/03/13 02:39:47;;;;;;;6.22;3.45;;;11.10;99.90;;;;;;5031010;28;20242;-42
2023/03/13 02:42:16;;;;;;;8.77;2.70;;;11.10;99.90;;;;;;5031584;28;20171;-42
2023/03/13 02:44:43;;;;;;;7.50;2.95;;;11.10;99.90;;;;;;5031283;28;20156;-42
2023/03/13 02:47:09;;;;;;;9.68;3.85;;;11.00;99.90;;;;;;5031287;28;20171;-42
2023/03/13 02:49:35;;;;;;;10.00;4.78;;;11.10;99.90;;;;;;5031889;28;20530;-42
2023/03/13 02:52:11;;;;;;;8.63;4.30;;;11.10;99.90;;;;;;5031708;28;20213;-42
2023/03/13 02:54:39;;;;;;;8.50;3.40;;;11.10;99.90;;;;;;5031331;28;20167;-42
2023/03/13 02:57:04;;;;;;;7.15;3.67;;;11.00;99.90;;;;;;5031492;28;20211;-43
2023/03/13 02:59:31;;;;;;;8.52;3.60;;;11.20;99.90;;;;;;5031213;28;20178;-43
2023/03/13 03:01:57;;;;;;;6.90;3.70;;;11.10;99.90;;;;;;5031198;28;20179;-42
2023/03/13 03:04:24;;;;;;;6.47;3.38;;;11.10;99.90;;;;;;5031151;28;20181;-42
2023/03/13 03:06:50;;;;;;;7.95;3.45;;;11.10;99.90;;;;;;5031173;28;20226;-43
2023/03/13 03:09:16;;;;;;;8.18;2.83;;;11.20;99.90;;;;;;5031146;28;20155;-42
2023/03/13 03:11:41;;;;;;;4.63;2.90;;;11.10;99.90;;;;;;5031104;28;20171;-43
2023/03/13 03:14:08;;;;;;;4.88;2.90;;;11.10;99.90;;;;;;5029775;28;20175;-43
2023/03/13 03:16:34;;;;;;;2.50;1.80;;;11.30;99.90;;;;;;5031177;28;20191;-42
2023/03/13 03:18:59;;;;;;;4.65;2.90;;;11.30;99.90;;;;;;5031103;28;20186;-42
2023/03/13 03:21:25;;;;;;;6.35;3.03;;;11.30;99.90;;;;;;5031012;28;20175;-43
2023/03/13 03:23:50;;;;;;;2.63;1.83;;;11.30;99.90;;;;;;5030945;28;20193;-43
2023/03/13 03:26:17;;;;;;;1.60;1.00;;;11.30;99.90;;;;;;5031012;28;20202;-43
2023/03/13 03:28:42;;;;;;;1.38;0.65;;;11.40;99.90;;;;;;5030969;28;20167;-42
2023/03/13 03:31:10;;;;;;;0.98;0.88;;;11.40;99.90;;;;;;5030470;28;20175;-43
2023/03/13 03:33:37;;;;;;;1.02;0.95;;;11.40;99.90;;;;;;5030852;28;20627;-43
2023/03/13 03:36:06;;;;;;;1.42;1.08;;;11.40;99.90;;;;;;5031103;28;20210;-42
2023/03/13 03:38:31;;;;;;;4.57;1.02;;;11.40;99.90;;;;;;5030951;28;20206;-42
2023/03/13 03:40:57;;;;;;;0.88;0.85;;;11.40;99.90;;;;;;5030894;28;20215;-42
2023/03/13 03:43:23;;;;;;;0.70;0.65;;;11.40;99.90;;;;;;5030907;28;20289;-42
2023/03/13 03:45:48;;;;;;;2.53;0.80;;;11.50;99.90;;;;;;5030838;28;20202;-42
2023/03/13 03:48:14;;;;;;;1.50;0.90;;;11.50;99.90;;;;;;5030776;28;20183;-42
2023/03/13 03:50:39;;;;;;;0.90;0.82;;;11.60;99.90;;;;;;5031598;28;20172;-42
2023/03/13 03:53:05;;;;;;;3.35;0.77;;;11.60;99.90;;;;;;5034845;28;20163;-43
2023/03/13 03:55:30;;;;;;;2.33;0.90;;;11.00;99.90;;;;;;5035144;28;20194;-42
2023/03/13 03:57:56;;;;;;;1.85;0.70;;;11.60;99.90;;;;;;5034517;28;20530;-43
2023/03/13 04:00:22;;;;;;;5.40;1.55;;;11.70;99.90;;;;;;5034284;28;20628;-43
2023/03/13 04:02:48;;;;;;;3.28;1.20;;;11.80;99.90;;;;;;5033245;28;20178;-43
2023/03/13 04:05:13;;;;;;;2.13;1.25;;;11.80;99.90;;;;;;5034251;28;20163;-43
2023/03/13 04:07:39;;;;;;;2.55;0.63;;;11.80;99.90;;;;;;5034359;28;20706;-43
2023/03/13 04:10:05;;;;;;;1.85;0.80;;;11.80;99.90;;;;;;5034463;28;20522;-43
2023/03/13 04:12:31;;;;;;;1.55;1.00;;;11.90;99.90;;;;;;5034616;28;20174;-42
2023/03/13 04:14:56;;;;;;;1.52;0.82;;;11.90;99.90;;;;;;5034121;28;20171;-43
2023/03/13 04:17:22;;;;;;;2.05;1.00;;;11.90;99.90;;;;;;5033917;28;20290;-42
2023/03/13 04:19:47;;;;;;;0.73;0.73;;;12.10;99.90;;;;;;5034118;28;20627;-43
2023/03/13 04:22:13;;;;;;;3.63;1.02;;;12.00;99.90;;;;;;5034166;28;20210;-42
2023/03/13 04:24:38;;;;;;;0.95;0.93;;;12.00;99.90;;;;;;5033919;28;20163;-43
2023/03/13 04:27:05;;;;;;;1.73;0.80;;;12.00;99.90;;;;;;5034556;28;20160;-43
2023/03/13 04:29:32;;;;;;;1.60;0.77;;;12.10;99.90;;;;;;5033963;28;20717;-44
2023/03/13 04:31:57;;;;;;;0.90;0.65;;;12.10;99.90;;;;;;5033799;28;20219;-44
2023/03/13 04:34:23;;;;;;;1.30;0.80;;;12.10;99.90;;;;;;5033860;28;20233;-44
2023/03/13 04:36:49;;;;;;;0.75;0.70;;;12.20;99.90;;;;;;5033793;28;20667;-43
2023/03/13 04:39:14;;;;;;;2.00;0.85;;;12.20;99.90;;;;;;5033747;28;20213;-43
2023/03/13 04:41:40;;;;;;;0.52;0.50;;;12.30;99.90;;;;;;5033674;28;20261;-45
2023/03/13 04:44:05;;;;;;;4.03;1.55;;;12.20;99.90;;;;;;5033535;28;20172;-43
2023/03/13 04:46:31;;;;;;;2.65;0.90;;;12.30;99.90;;;;;;5034020;28;20171;-43
2023/03/13 04:48:56;;;;;;;1.73;0.82;;;12.30;99.90;;;;;;5033541;28;20174;-42
2023/03/13 04:51:22;;;;;;;0.63;0.63;;;12.30;99.90;;;;;;5033433;28;20174;-44
2023/03/13 04:53:48;;;;;;;0.98;0.98;;;12.30;99.90;;;;;;5033427;28;20198;-43
2023/03/13 04:56:24;;;;;;;1.15;0.73;;;12.40;99.90;;;;;;5033534;28;20234;-43
2023/03/13 04:58:50;;;;;;;1.63;1.02;;;12.50;99.90;;;;;;5033275;28;20198;-43
2023/03/13 05:01:16;;;;;;;1.80;1.27;;;12.50;99.90;;;;;;5032759;28;20179;-46
2023/03/13 05:03:41;;;;;;;1.90;1.23;;;12.50;99.90;;;;;;5032891;28;20631;-44
2023/03/13 05:06:07;;;;;;;1.45;1.30;;;12.50;99.90;;;;;;5033258;28;20178;-43
2023/03/13 05:08:35;;;;;;;1.35;1.13;;;12.60;99.90;;;;;;5033509;28;20215;-44
2023/03/13 05:11:01;;;;;;;4.50;1.35;;;12.70;99.90;;;;;;5033426;28;20662;-45
2023/03/13 05:13:27;;;;;;;1.75;0.95;;;12.70;99.90;;;;;;5033337;28;20206;-43
2023/03/13 05:15:52;;;;;;;1.70;1.40;;;12.70;99.90;;;;;;5033089;28;20286;-43
2023/03/13 05:18:18;;;;;;;2.85;1.25;;;12.80;99.90;;;;;;5032697;28;20176;-42
2023/03/13 05:20:43;;;;;;;1.17;1.08;;;12.80;99.90;;;;;;5032862;28;20179;-43
2023/03/13 05:23:09;;;;;;;2.00;1.70;;;12.80;99.90;;;;;;5032821;28;20168;-43
2023/03/13 05:25:34;;;;;;;1.20;1.10;;;12.80;99.90;;;;;;5033145;28;20178;-43
2023/03/13 05:28:00;;;;;;;2.58;1.33;;;12.80;99.90;;;;;;5033020;28;20167;-43
2023/03/13 05:30:26;;;;;;;2.58;1.23;;;12.80;99.90;;;;;;5032436;28;20574;-49
2023/03/13 05:32:52;;;;;;;1.95;1.60;;;12.90;99.90;;;;;;5032510;28;20650;-48
2023/03/13 05:35:17;;;;;;;3.25;0.95;;;12.80;99.90;;;;;;5032977;28;20168;-48
2023/03/13 05:37:44;;;;;;;4.05;1.40;;;12.90;99.90;;;;;;5032592;28;20557;-49
2023/03/13 05:40:10;;;;;;;2.05;1.50;;;12.90;99.90;;;;;;5032438;28;20509;-50
2023/03/13 05:42:36;;;;;;;3.97;1.15;;;12.90;99.90;;;;;;5032119;28;20183;-51
2023/03/13 05:45:01;;;;;;;3.78;1.85;;;12.90;99.90;;;;;;5032742;28;20266;-51
2023/03/13 05:47:27;;;;;;;1.20;1.10;;;12.90;99.90;;;;;;5032632;28;20171;-47
2023/03/13 05:49:52;;;;;;;1.65;0.98;;;12.90;99.90;;;;;;5032311;28;20167;-51
2023/03/13 05:52:18;;;;;;;4.47;1.33;;;12.90;99.90;;;;;;5031789;28;20175;-46
2023/03/13 05:54:43;;;;;;;3.15;1.35;;;13.00;99.90;;;;;;5032194;28;20203;-51
2023/03/13 05:57:09;;;;;;;1.25;1.10;;;12.90;99.90;;;;;;5032174;28;20214;-50
2023/03/13 05:59:35;;;;;;;11.55;2.08;;;12.90;99.90;;;;;;5032527;28;20167;-51
2023/03/13 06:02:00;;;;;;;5.07;1.85;;;12.90;99.90;;;;;;5032671;28;20179;-50
2023/03/13 06:04:26;;;;;;;10.10;2.00;;;13.00;99.90;;;;;;5032132;28;20175;-51
2023/03/13 06:06:51;;;;;;;14.50;2.08;;;13.00;99.90;;;;;;5031947;28;20595;-43
2023/03/13 06:09:17;;;;;;;12.38;1.55;;;13.00;99.90;;;;;;5031897;28;20177;-47
2023/03/13 06:11:42;;;;;;;3.65;2.40;;;12.90;99.90;;;;;;5031892;28;20262;-50
2023/03/13 06:14:08;;;;;;;5.47;1.50;;;13.00;99.90;;;;;;5030736;28;20179;-45
2023/03/13 06:16:34;;;;;;;2.40;1.80;;;13.00;99.90;;;;;;5031716;28;20214;-46
2023/03/13 06:19:01;;;;;;;2.85;1.08;;;13.10;99.90;;;;;;5031689;28;20179;-46
2023/03/13 06:21:26;;;;;;;6.57;1.77;;;13.10;99.90;;;;;;5030517;28;20177;-49
2023/03/13 06:23:56;;;;;;;1.38;1.15;;;13.10;99.90;;;;;;5029845;28;20233;-43
2023/03/13 06:26:23;;;;;;;1.83;1.40;;;13.00;99.90;;;;;;5031402;28;20159;-45
2023/03/13 06:28:49;;;;;;;2.15;1.40;;;13.10;99.90;;;;;;5030721;28;20167;-44
2023/03/13 06:31:15;;;;;;;2.15;1.58;;;13.00;99.90;;;;;;5031128;28;20177;-46
2023/03/13 06:33:40;;;;;;;1.75;1.60;;;13.00;99.90;;;;;;5031031;28;20175;-45
2023/03/13 06:36:06;;;;;;;3.08;1.70;;;13.20;99.90;;;;;;5030862;28;20207;-45
2023/03/13 06:38:32;;;;;;;4.53;1.67;;;13.10;99.90;;;;;;5031200;28;20179;-46
2023/03/13 06:40:58;;;;;;;4.13;1.40;;;13.20;99.90;;;;;;5029583;28;20220;-47
2023/03/13 06:43:24;;;;;;;1.70;1.52;;;13.20;99.90;;;;;;5030690;28;20258;-46
2023/03/13 06:45:50;;;;;;;4.05;1.23;;;13.20;99.90;;;;;;5030713;28;20216;-45
2023/03/13 06:48:16;;;;;;;1.88;1.77;;;13.20;99.90;;;;;;5030860;28;20159;-44
2023/03/13 06:50:41;;;;;;;3.00;1.90;;;13.30;99.90;;;;;;5030743;28;20293;-44
2023/03/13 06:53:15;;;;;;;2.55;1.70;;;13.30;99.90;;;;;;5030765;28;20654;-43
2023/03/13 06:55:41;;;;;;;1.90;1.55;;;13.30;99.90;;;;;;5029883;28;20171;-43
2023/03/13 06:58:06;;;;;;;9.05;1.58;;;13.40;99.90;;;;;;5030683;28;20179;-45
2023/03/13 07:00:33;;;;;;;4.85;2.20;;;13.30;99.90;;;;;;5029541;28;20281;-48
2023/03/13 07:02:58;;;;;;;4.93;2.67;;;13.40;99.90;;;;;;5030489;28;20176;-45
2023/03/13 07:05:24;;;;;;;8.95;1.55;;;13.30;99.90;;;;;;5030768;28;20179;-46
2023/03/13 07:07:50;;;;;;;9.68;3.53;;;13.40;99.90;;;;;;5030128;28;20286;-45
2023/03/13 07:10:15;;;;;;;8.80;2.15;;;13.40;99.90;;;;;;5030500;28;20176;-45
2023/03/13 07:12:41;;;;;;;6.20;2.10;;;13.40;99.90;;;;;;5030331;28;20170;-46
2023/03/13 07:15:07;;;;;;;6.38;2.13;;;13.50;99.90;;;;;;5030574;28;20167;-44
2023/03/13 07:17:33;;;;;;;7.13;2.15;;;13.50;99.90;;;;;;5031159;28;20221;-47
2023/03/13 07:19:58;;;;;;;7.13;2.15;;;13.50;99.90;;;;;;5030465;28;20171;-45
2023/03/13 07:22:24;;;;;;;3.92;2.28;;;13.50;99.90;;;;;;5030452;28;20173;-47
2023/03/13 07:24:49;;;;;;;2.03;1.67;;;13.50;99.90;;;;;;5031670;28;20171;-46
2023/03/13 07:27:19;;;;;;;4.72;1.80;;;13.50;99.90;;;;;;5034515;28;20170;-43
2023/03/13 07:29:45;;;;;;;3.15;0.98;;;13.50;99.90;;;;;;5034848;28;20521;-45
2023/03/13 07:32:10;;;;;;;6.03;2.20;;;13.60;99.90;;;;;;5034166;28;20187;-44
2023/03/13 07:34:36;;;;;;;3.40;1.70;;;13.60;99.90;;;;;;5033324;28;20167;-46
2023/03/13 07:37:01;;;;;;;2.42;1.75;;;13.50;99.90;;;;;;5034711;28;20415;-47
2023/03/13 07:39:27;;;;;;;5.18;1.90;;;13.60;99.90;;;;;;5034353;28;20179;-52
2023/03/13 07:41:52;;;;;;;3.20;1.77;;;13.60;99.90;;;;;;5034293;28;20655;-49
2023/03/13 07:44:18;;;;;;;3.75;2.15;;;13.60;99.90;;;;;;5034242;28;20163;-47
2023/03/13 07:46:44;;;;;;;4.32;1.90;;;13.60;99.90;;;;;;5034104;28;20624;-46
2023/03/13 07:49:10;;;;;;;2.75;2.28;;;13.60;99.90;;;;;;5034520;28;20175;-44
2023/03/13 07:51:36;;;;;;;7.55;3.20;;;13.50;99.90;;;;;;5034093;28;20646;-47
2023/03/13 07:54:01;;;;;;;4.22;1.60;;;13.50;99.90;;;;;;5034377;28;20640;-46
2023/03/13 07:56:27;;;;;;;5.10;2.50;;;13.60;99.90;;;;;;5034028;28;20203;-48
2023/03/13 07:58:52;;;;;;;3.83;1.90;;;13.70;99.90;;;;;;5034295;28;20164;-44
2023/03/13 08:01:24;;;;;;;7.80;3.00;;;13.60;99.90;;;;;;5034118;28;20670;-45
2023/03/13 08:03:50;;;;;;;3.15;2.00;;;13.60;99.90;;;;;;5033819;28;20643;-45
2023/03/13 08:06:19;;;;;;;6.75;2.15;;;13.50;99.90;;;;;;5034209;28;20584;-47
2023/03/13 08:08:45;;;;;;;5.00;2.08;;;13.60;99.90;;;;;;5034382;28;20187;-45
2023/03/13 08:11:14;;;;;;;4.40;1.83;;;13.60;99.90;;;;;;5034051;28;20217;-52
2023/03/13 08:13:40;;;;;;;6.45;2.05;;;13.70;99.90;;;;;;5034055;28;20697;-42
2023/03/13 08:16:15;;;;;;;5.10;2.35;;;13.60;99.90;;;;;;5033856;28;20195;-43
2023/03/13 08:18:42;;;;;;;4.03;2.40;;;13.60;99.90;;;;;;5031694;28;20186;-42
2023/03/13 08:21:16;;;;;;;4.97;2.40;;;13.60;99.90;;;;;;5034032;28;20190;-43
2023/03/13 08:23:43;;;;;;;3.83;2.55;;;13.70;99.90;;;;;;5033839;28;20225;-43
2023/03/13 08:26:13;;;;;;;5.28;2.20;;;13.70;99.90;;;;;;5033988;28;20266;-42
2023/03/13 08:28:39;;;;;;;6.53;1.92;;;13.80;99.90;;;;;;5033841;28;20221;-43
2023/03/13 08:31:15;;;;;;;3.67;1.90;;;13.90;99.90;;;;;;5033814;28;20244;-43
2023/03/13 08:33:43;;;;;;;5.43;2.90;;;13.80;99.90;;;;;;5033638;28;20171;-43
2023/03/13 08:36:12;;;;;;;5.55;3.10;;;13.80;99.90;;;;;;5032352;28;20199;-43
2023/03/13 08:38:40;;;;;;;6.53;2.72;;;13.80;99.90;;;;;;5033616;28;20178;-42
2023/03/13 08:41:06;;;;;;;6.38;2.00;;;13.90;99.90;;;;;;5033480;28;20183;-42
2023/03/13 08:43:32;;;;;;;3.53;2.30;;;13.90;99.90;;;;;;5033610;28;20170;-42
2023/03/13 08:45:57;;;;;;;7.80;2.00;;;13.90;99.90;;;;;;5033439;28;20179;-44
2023/03/13 08:48:23;;;;;;;11.05;3.03;;;13.90;99.90;;;;;;5033419;28;20176;-43
2023/03/13 08:51:09;;;;;;;3.67;1.83;;;13.80;99.90;;;;;;5033250;28;20640;-43
2023/03/13 08:53:35;;;;;;;2.75;1.88;;;13.80;99.90;;;;;;5033340;28;20170;-44
2023/03/13 08:56:01;;;;;;;6.25;2.58;;;13.80;99.90;;;;;;5033679;28;20191;-47
2023/03/13 08:58:27;;;;;;;5.57;2.30;;;13.80;99.90;;;;;;5033131;28;20187;-44
2023/03/13 09:00:54;;;;;;;6.88;2.92;;;13.90;99.90;;;;;;5033130;28;20747;-45
2023/03/13 09:03:19;;;;;;;4.00;2.40;;;13.90;99.90;;;;;;5033257;28;20241;-48
2023/03/13 09:05:46;;;;;;;7.47;2.95;;;13.90;99.90;;;;;;5032951;28;20199;-45
2023/03/13 09:08:14;;;;;;;2.33;1.65;;;13.90;99.90;;;;;;5032907;28;20227;-45
2023/03/13 09:10:39;;;;;;;5.07;2.97;;;13.90;99.90;;;;;;5033065;28;20195;-45
2023/03/13 09:13:05;;;;;;;9.25;2.78;;;13.90;99.90;;;;;;5032887;28;20901;-46
2023/03/13 09:15:31;;;;;;;5.80;3.22;;;14.00;99.90;;;;;;5033259;28;20175;-46
2023/03/13 09:17:56;;;;;;;3.30;2.17;;;14.00;99.90;;;;;;5032872;28;20180;-44
2023/03/13 09:20:22;;;;;;;3.53;2.20;;;14.10;99.90;;;;;;5031565;28;20168;-47
2023/03/13 09:22:47;;;;;;;9.82;3.40;;;14.10;99.90;;;;;;5032708;28;20177;-46
2023/03/13 09:25:13;;;;;;;7.07;2.95;;;14.10;99.90;;;;;;5032863;28;20195;-44
2023/03/13 09:27:39;;;;;;;7.50;2.08;;;14.20;99.90;;;;;;5032217;28;20202;-44
2023/03/13 09:30:06;;;;;;;4.75;2.30;;;14.20;99.90;;;;;;5032574;28;20246;-46
2023/03/13 09:32:31;;;;;;;7.68;2.85;;;14.30;99.90;;;;;;5033065;28;20163;-44
2023/03/13 09:34:58;;;;;;;7.10;2.35;;;14.40;99.90;;;;;;5032354;28;20320;-48
2023/03/13 09:37:23;;;;;;;3.03;1.83;;;14.50;99.90;;;;;;5032579;28;20211;-45
2023/03/13 09:39:49;;;;;;;3.33;1.60;;;14.50;99.90;;;;;;5032283;28;20517;-49
2023/03/13 09:42:19;;;;;;;2.45;1.85;;;14.50;99.90;;;;;;5032307;28;20201;-46
2023/03/13 09:44:55;;;;;;;3.83;1.92;;;14.50;99.90;;;;;;5032397;28;20234;-48
2023/03/13 09:47:47;;;;;;;4.35;2.22;;;14.60;99.90;;;;;;5031986;28;20174;-49
2023/03/13 09:50:22;;;;;;;3.28;1.70;;;14.70;99.90;;;;;;5031889;28;20225;-47
2023/03/13 09:52:53;;;;;;;5.07;1.90;;;14.70;99.90;;;;;;5032209;28;20205;-45
2023/03/13 09:55:25;;;;;;;3.42;1.92;;;14.70;99.90;;;;;;5032245;28;20159;-45
2023/03/13 09:58:11;;;;;;;4.32;1.90;;;14.80;99.90;;;;;;5032025;28;20289;-45
2023/03/13 10:00:39;;;;;;;3.42;1.83;;;14.80;99.90;;;;;;5032124;28;20239;-46
2023/03/13 10:03:13;;;;;;;2.58;1.40;;;14.80;99.90;;;;;;5031904;28;20269;-47
2023/03/13 10:05:48;;;;;;;3.03;1.38;;;14.90;99.90;;;;;;5031851;28;20532;-49
2023/03/13 10:08:25;;;;;;;2.40;1.42;;;14.90;99.90;;;;;;5031928;28;20217;-45
2023/03/13 10:11:08;;;;;;;2.30;1.52;;;14.90;99.90;;;;;;5031255;28;20174;-47
2023/03/13 10:13:56;;;;;;;4.32;1.58;;;15.00;99.90;;;;;;5030250;28;20193;-45
2023/03/13 10:16:27;;;;;;;2.88;1.80;;;15.00;99.90;;;;;;5031624;28;20260;-46
2023/03/13 10:18:57;;;;;;;1.23;1.00;;;15.10;99.90;;;;;;5031665;28;20163;-47
2023/03/13 10:21:25;;;;;;;1.20;1.02;;;15.20;99.90;;;;;;5031691;28;20588;-45
2023/03/13 10:24:13;;;;;;;4.85;1.95;;;15.20;99.90;;;;;;5031870;28;20194;-45
2023/03/13 10:26:39;;;;;;;4.28;1.20;;;15.20;99.90;;;;;;5031452;28;20579;-50
2023/03/13 10:29:37;;;;;;;2.95;1.40;;;15.30;99.90;;;;;;5031223;28;20183;-46
2023/03/13 10:32:05;;;;;;;1.80;1.27;;;15.40;99.90;;;;;;5030339;28;20209;-48
2023/03/13 10:34:55;;;;;;;1.75;1.60;;;15.50;99.90;;;;;;5031902;28;20175;-48
2023/03/13 10:37:27;;;;;;;2.40;1.35;;;15.70;99.90;;;;;;5031082;28;20203;-50
2023/03/13 10:39:54;;;;;;;8.23;1.52;;;15.70;99.90;;;;;;5031440;28;20635;-53
2023/03/13 10:42:27;;;;;;;2.35;1.50;;;15.70;99.90;;;;;;5029825;28;20732;-45
2023/03/13 10:45:00;;;;;;;5.93;1.67;;;15.70;99.90;;;;;;5031236;28;20558;-51
2023/03/13 10:47:26;;;;;;;1.65;1.30;;;15.70;99.90;;;;;;5031239;28;20254;-50
2023/03/13 10:49:56;;;;;;;3.22;1.52;;;15.70;99.90;;;;;;5031226;28;20163;-49
2023/03/13 10:52:30;;;;;;;2.70;1.38;;;15.80;99.90;;;;;;5031158;28;20190;-49
2023/03/13 10:55:00;;;;;;;2.55;1.67;;;15.80;99.90;;;;;;5031078;28;20163;-48
2023/03/13 10:57:36;;;;;;;3.38;1.33;;;15.90;99.90;;;;;;5031323;28;20231;-52
2023/03/13 11:00:26;;;;;;;6.63;1.58;;;16.00;99.90;;;;;;5015856;28;20163;-44
2023/03/13 11:02:53;;;;;;;4.75;1.95;;;16.00;99.90;;;;;;5030736;28;20171;-44
2023/03/13 11:05:25;;;;;;;3.38;1.40;;;15.90;99.90;;;;;;5031025;28;20246;-44
2023/03/13 11:07:51;;;;;;;1.52;1.20;;;15.90;99.90;;;;;;5030870;28;20222;-44
2023/03/13 11:10:22;;;;;;;7.63;1.42;;;16.00;99.90;;;;;;5030731;28;20164;-44
2023/03/13 11:12:56;;;;;;;3.28;1.38;;;15.90;99.90;;;;;;5030913;28;20526;-52
2023/03/13 11:15:28;;;;;;;8.50;1.25;;;16.00;99.90;;;;;;5030845;28;20175;-53
2023/03/13 11:18:31;;;;;;;6.15;1.52;;;16.00;99.90;;;;;;5030517;28;20210;-53
2023/03/13 11:20:58;;;;;;;6.05;1.63;;;16.00;99.90;;;;;;5030585;28;20190;-52
2023/03/13 11:23:28;;;;;;;1.23;0.98;;;16.00;99.90;;;;;;5031079;28;20175;-53
2023/03/13 11:26:30;;;;;;;2.13;0.77;;;16.00;99.90;;;;;;5030734;28;20170;-52
2023/03/13 11:29:11;;;;;;;2.10;0.90;;;15.80;99.90;;;;;;5030771;28;20631;-53
2023/03/13 11:31:59;;;;;;;12.90;1.88;;;15.80;99.90;;;;;;5030962;28;20588;-52
2023/03/13 11:34:56;;;;;;;0.95;0.93;;;15.80;99.90;;;;;;5030562;28;20171;-44
2023/03/13 11:37:23;;;;;;;5.25;1.15;;;15.80;99.90;;;;;;5030169;28;20215;-44
2023/03/13 11:40:08;;;;;;;2.35;1.10;;;16.00;99.90;;;;;;5030623;28;20171;-45
2023/03/13 11:43:05;;;;;;;7.05;1.10;;;16.00;99.90;;;;;;5030794;28;20539;-51
2023/03/13 11:46:07;;;;;;;4.68;0.90;;;15.90;99.90;;;;;;5031008;28;20594;-53
2023/03/13 11:48:49;;;;;;;7.20;1.20;;;15.90;99.90;;;;;;5030943;28;20661;-47
2023/03/13 11:51:23;;;;;;;12.48;1.80;;;16.10;99.90;;;;;;5030835;28;20171;-53
2023/03/13 11:54:24;;;;;;;9.63;1.27;;;16.50;99.90;;;;;;5030510;28;20171;-53
2023/03/13 11:56:52;;;;;;;1.27;1.17;;;16.80;99.90;;;;;;5030299;28;20276;-50
2023/03/13 11:59:20;;;;;;;1.80;0.95;;;16.60;99.90;;;;;;5030396;28;20164;-52
2023/03/13 12:01:52;;;;;;;3.00;0.82;;;16.40;99.90;;;;;;5030496;28;20635;-53
2023/03/13 12:04:29;;;;;;;3.67;1.00;;;16.30;99.90;;;;;;5030388;28;20571;-51
2023/03/13 12:07:04;;;;;;;6.22;0.85;;;16.30;99.90;;;;;;5029804;28;20290;-50
2023/03/13 12:10:12;;;;;;;4.00;1.20;;;16.10;99.90;;;;;;5030611;28;20163;-53
2023/03/13 12:12:59;;;;;;;6.80;1.00;;;16.00;99.90;;;;;;5031869;28;20187;-53
2023/03/13 12:15:42;;;;;;;6.88;1.23;;;16.10;99.90;;;;;;5032860;28;20195;-53
2023/03/13 12:18:34;;;;;;;11.15;1.60;;;16.30;99.90;;;;;;5033550;28;20584;-53
2023/03/13 12:21:11;;;;;;;10.70;1.52;;;16.50;99.90;;;;;;5034223;28;20174;-52
2023/03/13 12:23:54;;;;;;;12.88;2.25;;;16.70;99.90;;;;;;5033831;28;20619;-46
2023/03/13 12:26:25;;;;;;;8.45;1.20;;;16.50;99.90;;;;;;5033411;28;20169;-47
2023/03/13 12:28:54;;;;;;;13.70;2.38;;;16.50;99.90;;;;;;5033889;28;20543;-47
2023/03/13 12:31:32;;;;;;;6.03;1.00;;;16.50;99.90;;;;;;5033764;28;20174;-45
2023/03/13 12:34:26;;;;;;;6.68;1.33;;;16.50;99.90;;;;;;5034247;28;20167;-48
2023/03/13 12:36:59;;;;;;;9.63;1.90;;;16.50;99.90;;;;;;5033235;28;20211;-47
2023/03/13 12:39:28;;;;;;;5.53;1.25;;;16.60;99.90;;;;;;5033734;28;20175;-51
2023/03/13 12:42:46;;;;;;;15.27;1.80;;;16.60;99.90;;;;;;5032597;28;20540;-45
2023/03/13 12:45:18;;;;;;;4.70;1.48;;;16.60;99.90;;;;;;4992123;28;20173;-44
2023/03/13 12:48:02;;;;;;;11.63;2.03;;;17.00;99.90;;;;;;4991791;28;20223;-44
2023/03/13 12:51:01;;;;;;;3.33;1.30;;;16.90;99.90;;;;;;5016271;28;20179;-44
2023/03/13 12:53:45;;;;;;;7.20;1.60;;;16.70;99.90;;;;;;5032738;28;20183;-44
2023/03/13 12:56:31;;;;;;;4.80;1.80;;;16.70;99.90;;;;;;5031597;28;20583;-44
2023/03/13 12:59:10;;;;;;;3.97;1.10;;;16.70;99.90;;;;;;5033169;28;20217;-47